sensor_id;sensor_type;location;lat;lon;timestamp;temperature;humidity
45137;DHT22;30894;51.740;19.498;2022-11-20T00:01:11;-2.00;99.90
45137;DHT22;30894;51.740;19.498;2022-11-20T00:03:38;-1.90;99.90
45137;DHT22;30894;51.740;19.498;2022-11-20T00:06:06;-1.90;99.90
45137;DHT22;30894;51.740;19.498;2022-11-20T00:08:34;-1.90;99.90
45137;DHT22;30894;51.740;19.498;2022-11-20T00:11:14;-1.90;99.90
45137;DHT22;30894;51.740;19.498;2022-11-20T00:13:43;-1.80;99.90
45137;DHT22;30894;51.740;19.498;2022-11-20T00:16:12;-1.80;99.90
45137;DHT22;30894;51.740;19.498;2022-11-20T00:18:39;-1.80;99.90
45137;DHT22;30894;51.740;19.498;2022-11-20T00:21:09;-1.90;99.90
45137;DHT22;30894;51.740;19.498;2022-11-20T00:23:37;-1.80;99.90
45137;DHT22;30894;51.740;19.498;2022-11-20T00:26:04;-1.80;99.90
45137;DHT22;30894;51.740;19.498;2022-11-20T00:28:34;-1.80;99.90
45137;DHT22;30894;51.740;19.498;2022-11-20T00:31:06;-1.80;99.90
45137;DHT22;30894;51.740;19.498;2022-11-20T00:33:33;-1.80;99.90
45137;DHT22;30894;51.740;19.498;2022-11-20T00:36:14;-1.80;99.90
45137;DHT22;30894;51.740;19.498;2022-11-20T00:38:44;-1.80;99.90
45137;DHT22;30894;51.740;19.498;2022-11-20T00:41:14;-1.80;99.90
45137;DHT22;30894;51.740;19.498;2022-11-20T00:43:41;-1.80;99.90
45137;DHT22;30894;51.740;19.498;2022-11-20T00:46:10;-1.80;99.90
45137;DHT22;30894;51.740;19.498;2022-11-20T00:48:48;-1.90;99.90
45137;DHT22;30894;51.740;19.498;2022-11-20T00:51:19;-1.90;99.90
45137;DHT22;30894;51.740;19.498;2022-11-20T00:53:48;-2.00;99.90
45137;DHT22;30894;51.740;19.498;2022-11-20T00:56:16;-2.00;99.90
45137;DHT22;30894;51.740;19.498;2022-11-20T00:58:46;-1.90;99.90
45137;DHT22;30894;51.740;19.498;2022-11-20T01:01:23;-1.90;99.90
45137;DHT22;30894;51.740;19.498;2022-11-20T01:03:52;-2.00;99.90
45137;DHT22;30894;51.740;19.498;2022-11-20T01:08:54;-2.00;99.90
45137;DHT22;30894;51.740;19.498;2022-11-20T01:11:28;-2.00;99.90
45137;DHT22;30894;51.740;19.498;2022-11-20T01:13:57;-2.00;99.90
45137;DHT22;30894;51.740;19.498;2022-11-20T01:16:30;-2.00;99.90
45137;DHT22;30894;51.740;19.498;2022-11-20T01:19:03;-2.00;99.90
45137;DHT22;30894;51.740;19.498;2022-11-20T01:21:38;-2.00;99.90
45137;DHT22;30894;51.740;19.498;2022-11-20T01:24:07;-2.10;99.90
45137;DHT22;30894;51.740;19.498;2022-11-20T01:26:36;-2.10;99.90
45137;DHT22;30894;51.740;19.498;2022-11-20T01:29:03;-2.20;99.90
45137;DHT22;30894;51.740;19.498;2022-11-20T01:31:35;-2.20;99.90
45137;DHT22;30894;51.740;19.498;2022-11-20T01:34:04;-2.40;99.90
45137;DHT22;30894;51.740;19.498;2022-11-20T01:36:34;-2.40;99.90
45137;DHT22;30894;51.740;19.498;2022-11-20T01:39:04;-2.40;99.90
45137;DHT22;30894;51.740;19.498;2022-11-20T01:41:33;-2.50;99.90
45137;DHT22;30894;51.740;19.498;2022-11-20T01:44:21;-2.40;99.90
45137;DHT22;30894;51.740;19.498;2022-11-20T01:47:06;-2.40;99.90
45137;DHT22;30894;51.740;19.498;2022-11-20T01:49:45;-2.40;99.90
45137;DHT22;30894;51.740;19.498;2022-11-20T01:52:18;-2.30;99.90
45137;DHT22;30894;51.740;19.498;2022-11-20T01:54:58;-2.30;99.90
45137;DHT22;30894;51.740;19.498;2022-11-20T01:57:27;-2.30;99.90
45137;DHT22;30894;51.740;19.498;2022-11-20T02:00:04;-2.30;99.90
45137;DHT22;30894;51.740;19.498;2022-11-20T02:02:32;-2.30;99.90
45137;DHT22;30894;51.740;19.498;2022-11-20T02:05:04;-2.30;99.90
45137;DHT22;30894;51.740;19.498;2022-11-20T02:07:38;-2.30;99.90
45137;DHT22;30894;51.740;19.498;2022-11-20T02:10:04;-2.30;99.90
45137;DHT22;30894;51.740;19.498;2022-11-20T02:12:31;-2.30;99.90
45137;DHT22;30894;51.740;19.498;2022-11-20T02:15:15;-2.20;99.90
45137;DHT22;30894;51.740;19.498;2022-11-20T02:17:41;-2.20;99.90
45137;DHT22;30894;51.740;19.498;2022-11-20T02:20:07;-2.20;99.90
45137;DHT22;30894;51.740;19.498;2022-11-20T02:22:59;-2.20;99.90
45137;DHT22;30894;51.740;19.498;2022-11-20T02:25:46;-2.20;99.90
45137;DHT22;30894;51.740;19.498;2022-11-20T02:28:13;-2.20;99.90
45137;DHT22;30894;51.740;19.498;2022-11-20T02:30:39;-2.10;99.90
45137;DHT22;30894;51.740;19.498;2022-11-20T02:33:05;-2.20;99.90
45137;DHT22;30894;51.740;19.498;2022-11-20T02:38:00;-2.20;99.90
45137;DHT22;30894;51.740;19.498;2022-11-20T02:40:26;-2.20;99.90
45137;DHT22;30894;51.740;19.498;2022-11-20T02:42:56;-2.20;99.90
45137;DHT22;30894;51.740;19.498;2022-11-20T02:45:23;-2.20;99.90
45137;DHT22;30894;51.740;19.498;2022-11-20T02:47:51;-2.30;99.90
45137;DHT22;30894;51.740;19.498;2022-11-20T02:50:18;-2.40;99.90
45137;DHT22;30894;51.740;19.498;2022-11-20T02:52:44;-2.50;99.90
45137;DHT22;30894;51.740;19.498;2022-11-20T02:55:10;-2.60;99.90
45137;DHT22;30894;51.740;19.498;2022-11-20T02:57:37;-2.70;99.90
45137;DHT22;30894;51.740;19.498;2022-11-20T03:00:04;-2.80;99.90
45137;DHT22;30894;51.740;19.498;2022-11-20T03:02:31;-2.90;99.90
45137;DHT22;30894;51.740;19.498;2022-11-20T03:04:57;-3.00;99.90
45137;DHT22;30894;51.740;19.498;2022-11-20T03:07:23;-3.20;99.90
45137;DHT22;30894;51.740;19.498;2022-11-20T03:09:49;-3.30;99.90
45137;DHT22;30894;51.740;19.498;2022-11-20T03:12:15;-3.40;99.90
45137;DHT22;30894;51.740;19.498;2022-11-20T03:14:41;-3.50;99.90
45137;DHT22;30894;51.740;19.498;2022-11-20T03:17:07;-3.60;99.90
45137;DHT22;30894;51.740;19.498;2022-11-20T03:19:34;-3.70;99.90
45137;DHT22;30894;51.740;19.498;2022-11-20T03:22:00;-3.80;99.90
45137;DHT22;30894;51.740;19.498;2022-11-20T03:24:26;-3.90;99.90
45137;DHT22;30894;51.740;19.498;2022-11-20T03:26:52;-4.00;99.90
45137;DHT22;30894;51.740;19.498;2022-11-20T03:29:18;-4.10;99.90
45137;DHT22;30894;51.740;19.498;2022-11-20T03:31:45;-4.20;99.90
45137;DHT22;30894;51.740;19.498;2022-11-20T03:34:11;-4.30;99.90
45137;DHT22;30894;51.740;19.498;2022-11-20T03:36:39;-4.40;99.90
45137;DHT22;30894;51.740;19.498;2022-11-20T03:39:05;-4.40;99.90
45137;DHT22;30894;51.740;19.498;2022-11-20T03:41:36;-4.50;99.90
45137;DHT22;30894;51.740;19.498;2022-11-20T03:44:06;-4.60;99.90
45137;DHT22;30894;51.740;19.498;2022-11-20T03:46:34;-4.70;99.90
45137;DHT22;30894;51.740;19.498;2022-11-20T03:49:00;-4.70;99.90
45137;DHT22;30894;51.740;19.498;2022-11-20T03:51:29;-4.80;99.90
45137;DHT22;30894;51.740;19.498;2022-11-20T03:53:58;-4.80;99.90
45137;DHT22;30894;51.740;19.498;2022-11-20T03:56:31;-4.90;99.90
45137;DHT22;30894;51.740;19.498;2022-11-20T03:58:58;-5.00;99.90
45137;DHT22;30894;51.740;19.498;2022-11-20T04:01:30;-5.00;99.90
45137;DHT22;30894;51.740;19.498;2022-11-20T04:03:57;-5.10;99.90
45137;DHT22;30894;51.740;19.498;2022-11-20T04:06:28;-5.10;99.90
45137;DHT22;30894;51.740;19.498;2022-11-20T04:08:57;-5.20;99.90
45137;DHT22;30894;51.740;19.498;2022-11-20T04:11:26;-5.20;99.90
45137;DHT22;30894;51.740;19.498;2022-11-20T04:14:02;-5.30;99.90
45137;DHT22;30894;51.740;19.498;2022-11-20T04:16:34;-5.30;99.90
45137;DHT22;30894;51.740;19.498;2022-11-20T04:19:04;-5.40;99.90
45137;DHT22;30894;51.740;19.498;2022-11-20T04:21:31;-5.30;99.90
45137;DHT22;30894;51.740;19.498;2022-11-20T04:23:58;-5.50;99.90
45137;DHT22;30894;51.740;19.498;2022-11-20T04:26:26;-5.50;99.90
45137;DHT22;30894;51.740;19.498;2022-11-20T04:28:53;-5.60;99.90
45137;DHT22;30894;51.740;19.498;2022-11-20T04:31:25;-5.70;99.90
45137;DHT22;30894;51.740;19.498;2022-11-20T04:33:53;-5.70;99.90
45137;DHT22;30894;51.740;19.498;2022-11-20T04:36:22;-5.80;99.90
45137;DHT22;30894;51.740;19.498;2022-11-20T04:38:53;-5.80;99.90
45137;DHT22;30894;51.740;19.498;2022-11-20T04:41:22;-5.90;99.90
45137;DHT22;30894;51.740;19.498;2022-11-20T04:43:54;-5.90;99.90
45137;DHT22;30894;51.740;19.498;2022-11-20T04:46:26;-5.80;99.90
45137;DHT22;30894;51.740;19.498;2022-11-20T04:48:53;-5.80;99.90
45137;DHT22;30894;51.740;19.498;2022-11-20T04:51:19;-5.80;99.90
45137;DHT22;30894;51.740;19.498;2022-11-20T04:53:45;-5.80;99.90
45137;DHT22;30894;51.740;19.498;2022-11-20T04:56:12;-5.70;99.90
45137;DHT22;30894;51.740;19.498;2022-11-20T04:58:39;-5.80;99.90
45137;DHT22;30894;51.740;19.498;2022-11-20T05:01:10;-5.80;99.90
45137;DHT22;30894;51.740;19.498;2022-11-20T05:03:41;-5.80;99.90
45137;DHT22;30894;51.740;19.498;2022-11-20T05:06:09;-5.90;99.90
45137;DHT22;30894;51.740;19.498;2022-11-20T05:08:36;-5.90;99.90
45137;DHT22;30894;51.740;19.498;2022-11-20T05:11:20;-5.90;99.90
45137;DHT22;30894;51.740;19.498;2022-11-20T05:13:47;-6.00;99.90
45137;DHT22;30894;51.740;19.498;2022-11-20T05:16:19;-6.00;99.90
45137;DHT22;30894;51.740;19.498;2022-11-20T05:18:46;-6.00;99.90
45137;DHT22;30894;51.740;19.498;2022-11-20T05:21:14;-6.00;99.90
45137;DHT22;30894;51.740;19.498;2022-11-20T05:23:40;-6.00;99.90
45137;DHT22;30894;51.740;19.498;2022-11-20T05:26:12;-6.00;99.90
45137;DHT22;30894;51.740;19.498;2022-11-20T05:28:39;-6.10;99.90
45137;DHT22;30894;51.740;19.498;2022-11-20T05:31:16;-6.10;99.90
45137;DHT22;30894;51.740;19.498;2022-11-20T05:33:44;-6.10;99.90
45137;DHT22;30894;51.740;19.498;2022-11-20T05:36:12;-6.10;99.90
45137;DHT22;30894;51.740;19.498;2022-11-20T05:38:40;-6.10;99.90
45137;DHT22;30894;51.740;19.498;2022-11-20T05:41:08;-6.10;99.90
45137;DHT22;30894;51.740;19.498;2022-11-20T05:43:35;-6.20;99.90
45137;DHT22;30894;51.740;19.498;2022-11-20T05:46:03;-6.20;99.90
45137;DHT22;30894;51.740;19.498;2022-11-20T05:48:31;-6.30;99.90
45137;DHT22;30894;51.740;19.498;2022-11-20T05:50:59;-6.30;99.90
45137;DHT22;30894;51.740;19.498;2022-11-20T05:53:26;-6.30;99.90
45137;DHT22;30894;51.740;19.498;2022-11-20T05:56:03;-6.40;99.90
45137;DHT22;30894;51.740;19.498;2022-11-20T05:58:32;-6.50;99.90
45137;DHT22;30894;51.740;19.498;2022-11-20T06:01:11;-6.50;99.90
45137;DHT22;30894;51.740;19.498;2022-11-20T06:03:39;-6.50;99.90
45137;DHT22;30894;51.740;19.498;2022-11-20T06:06:08;-6.60;99.90
45137;DHT22;30894;51.740;19.498;2022-11-20T06:08:34;-6.60;99.90
45137;DHT22;30894;51.740;19.498;2022-11-20T06:11:05;-6.50;99.90
45137;DHT22;30894;51.740;19.498;2022-11-20T06:13:32;-6.60;99.90
45137;DHT22;30894;51.740;19.498;2022-11-20T06:15:58;-6.60;99.90
45137;DHT22;30894;51.740;19.498;2022-11-20T06:18:26;-6.50;99.90
45137;DHT22;30894;51.740;19.498;2022-11-20T06:21:05;-6.60;99.90
45137;DHT22;30894;51.740;19.498;2022-11-20T06:23:36;-6.60;99.90
45137;DHT22;30894;51.740;19.498;2022-11-20T06:26:05;-6.60;99.90
45137;DHT22;30894;51.740;19.498;2022-11-20T06:28:33;-6.60;99.90
45137;DHT22;30894;51.740;19.498;2022-11-20T06:30:59;-6.60;99.90
45137;DHT22;30894;51.740;19.498;2022-11-20T06:33:25;-6.50;99.90
45137;DHT22;30894;51.740;19.498;2022-11-20T06:35:52;-6.50;99.90
45137;DHT22;30894;51.740;19.498;2022-11-20T06:38:18;-6.40;99.90
45137;DHT22;30894;51.740;19.498;2022-11-20T06:40:44;-6.20;99.90
45137;DHT22;30894;51.740;19.498;2022-11-20T06:43:11;-6.20;99.90
45137;DHT22;30894;51.740;19.498;2022-11-20T06:45:37;-5.90;99.90
45137;DHT22;30894;51.740;19.498;2022-11-20T06:48:04;-5.50;99.90
45137;DHT22;30894;51.740;19.498;2022-11-20T06:50:30;-5.20;99.90
45137;DHT22;30894;51.740;19.498;2022-11-20T06:52:56;-4.90;99.90
45137;DHT22;30894;51.740;19.498;2022-11-20T06:55:22;-4.70;99.90
45137;DHT22;30894;51.740;19.498;2022-11-20T06:57:48;-4.40;99.90
45137;DHT22;30894;51.740;19.498;2022-11-20T07:00:14;-4.10;99.90
45137;DHT22;30894;51.740;19.498;2022-11-20T07:02:44;-3.90;99.90
45137;DHT22;30894;51.740;19.498;2022-11-20T07:05:10;-3.60;99.90
45137;DHT22;30894;51.740;19.498;2022-11-20T07:07:36;-3.30;99.90
45137;DHT22;30894;51.740;19.498;2022-11-20T07:10:02;-3.10;99.90
45137;DHT22;30894;51.740;19.498;2022-11-20T07:12:28;-2.80;99.90
45137;DHT22;30894;51.740;19.498;2022-11-20T07:14:54;-2.50;99.90
45137;DHT22;30894;51.740;19.498;2022-11-20T07:17:20;-2.20;99.90
45137;DHT22;30894;51.740;19.498;2022-11-20T07:19:46;-1.90;99.90
45137;DHT22;30894;51.740;19.498;2022-11-20T07:22:12;-1.60;99.90
45137;DHT22;30894;51.740;19.498;2022-11-20T07:24:39;-1.30;99.90
45137;DHT22;30894;51.740;19.498;2022-11-20T07:27:05;-1.00;99.90
45137;DHT22;30894;51.740;19.498;2022-11-20T07:29:32;-0.70;99.90
45137;DHT22;30894;51.740;19.498;2022-11-20T07:31:58;-0.50;99.90
45137;DHT22;30894;51.740;19.498;2022-11-20T07:34:25;-0.20;99.90
45137;DHT22;30894;51.740;19.498;2022-11-20T07:36:51;0.00;99.90
45137;DHT22;30894;51.740;19.498;2022-11-20T07:39:17;0.30;99.90
45137;DHT22;30894;51.740;19.498;2022-11-20T07:41:43;0.50;99.90
45137;DHT22;30894;51.740;19.498;2022-11-20T07:44:09;0.70;99.90
45137;DHT22;30894;51.740;19.498;2022-11-20T07:46:35;1.00;99.90
45137;DHT22;30894;51.740;19.498;2022-11-20T07:49:02;1.20;99.90
45137;DHT22;30894;51.740;19.498;2022-11-20T07:51:28;1.40;99.90
45137;DHT22;30894;51.740;19.498;2022-11-20T07:53:55;1.70;99.90
45137;DHT22;30894;51.740;19.498;2022-11-20T07:56:21;1.90;99.90
45137;DHT22;30894;51.740;19.498;2022-11-20T07:58:47;2.20;99.90
45137;DHT22;30894;51.740;19.498;2022-11-20T08:01:13;2.40;99.90
45137;DHT22;30894;51.740;19.498;2022-11-20T08:03:40;2.70;99.90
45137;DHT22;30894;51.740;19.498;2022-11-20T08:06:06;2.90;99.90
45137;DHT22;30894;51.740;19.498;2022-11-20T08:08:33;3.20;99.20
45137;DHT22;30894;51.740;19.498;2022-11-20T08:10:59;3.50;98.10
45137;DHT22;30894;51.740;19.498;2022-11-20T08:13:44;3.60;97.60
45137;DHT22;30894;51.740;19.498;2022-11-20T08:16:29;4.00;96.80
45137;DHT22;30894;51.740;19.498;2022-11-20T08:18:55;4.20;95.90
45137;DHT22;30894;51.740;19.498;2022-11-20T08:21:21;4.50;95.20
45137;DHT22;30894;51.740;19.498;2022-11-20T08:23:48;4.70;94.50
45137;DHT22;30894;51.740;19.498;2022-11-20T08:26:14;4.80;93.80
45137;DHT22;30894;51.740;19.498;2022-11-20T08:28:40;5.00;93.30
45137;DHT22;30894;51.740;19.498;2022-11-20T08:31:07;5.20;92.70
45137;DHT22;30894;51.740;19.498;2022-11-20T08:33:39;5.40;92.40
45137;DHT22;30894;51.740;19.498;2022-11-20T08:36:06;5.60;91.80
45137;DHT22;30894;51.740;19.498;2022-11-20T08:38:33;5.80;91.40
45137;DHT22;30894;51.740;19.498;2022-11-20T08:41:00;5.90;91.10
45137;DHT22;30894;51.740;19.498;2022-11-20T08:43:59;6.10;90.70
45137;DHT22;30894;51.740;19.498;2022-11-20T08:46:38;6.30;90.30
45137;DHT22;30894;51.740;19.498;2022-11-20T08:49:11;6.50;89.80
45137;DHT22;30894;51.740;19.498;2022-11-20T08:51:39;6.80;88.80
45137;DHT22;30894;51.740;19.498;2022-11-20T08:54:07;6.80;88.20
45137;DHT22;30894;51.740;19.498;2022-11-20T08:56:35;7.00;87.90
45137;DHT22;30894;51.740;19.498;2022-11-20T08:59:02;7.10;87.20
45137;DHT22;30894;51.740;19.498;2022-11-20T09:01:29;7.20;86.60
45137;DHT22;30894;51.740;19.498;2022-11-20T09:03:56;7.20;86.00
45137;DHT22;30894;51.740;19.498;2022-11-20T09:06:23;7.30;86.00
45137;DHT22;30894;51.740;19.498;2022-11-20T09:08:53;7.30;85.70
45137;DHT22;30894;51.740;19.498;2022-11-20T09:11:20;7.50;85.30
45137;DHT22;30894;51.740;19.498;2022-11-20T09:13:48;7.60;84.90
45137;DHT22;30894;51.740;19.498;2022-11-20T09:16:14;7.80;84.50
45137;DHT22;30894;51.740;19.498;2022-11-20T09:18:40;8.00;84.20
45137;DHT22;30894;51.740;19.498;2022-11-20T09:21:12;8.10;83.70
45137;DHT22;30894;51.740;19.498;2022-11-20T09:23:39;8.30;83.50
45137;DHT22;30894;51.740;19.498;2022-11-20T09:26:11;8.50;83.20
45137;DHT22;30894;51.740;19.498;2022-11-20T09:28:38;8.50;82.90
45137;DHT22;30894;51.740;19.498;2022-11-20T09:31:09;8.80;82.70
45137;DHT22;30894;51.740;19.498;2022-11-20T09:33:42;9.10;82.10
45137;DHT22;30894;51.740;19.498;2022-11-20T09:36:08;9.20;81.50
45137;DHT22;30894;51.740;19.498;2022-11-20T09:38:34;9.20;81.10
45137;DHT22;30894;51.740;19.498;2022-11-20T09:41:04;9.50;80.80
45137;DHT22;30894;51.740;19.498;2022-11-20T09:43:58;9.60;80.30
45137;DHT22;30894;51.740;19.498;2022-11-20T09:46:57;9.80;79.90
45137;DHT22;30894;51.740;19.498;2022-11-20T09:55:13;10.40;78.50
45137;DHT22;30894;51.740;19.498;2022-11-20T09:57:44;10.60;78.20
45137;DHT22;30894;51.740;19.498;2022-11-20T10:00:13;10.60;77.90
45137;DHT22;30894;51.740;19.498;2022-11-20T10:03:03;10.60;78.00
45137;DHT22;30894;51.740;19.498;2022-11-20T10:05:46;10.70;77.80
45137;DHT22;30894;51.740;19.498;2022-11-20T10:08:31;10.80;78.10
45137;DHT22;30894;51.740;19.498;2022-11-20T10:11:46;10.90;77.90
45137;DHT22;30894;51.740;19.498;2022-11-20T10:26:21;11.00;78.20
45137;DHT22;30894;51.740;19.498;2022-11-20T10:31:54;10.90;79.20
45137;DHT22;30894;51.740;19.498;2022-11-20T10:37:20;11.00;79.80
45137;DHT22;30894;51.740;19.498;2022-11-20T10:40:00;10.80;79.60
45137;DHT22;30894;51.740;19.498;2022-11-20T10:46:05;10.80;79.50
45137;DHT22;30894;51.740;19.498;2022-11-20T10:48:36;10.80;79.40
45137;DHT22;30894;51.740;19.498;2022-11-20T10:51:30;10.80;79.40
45137;DHT22;30894;51.740;19.498;2022-11-20T10:54:23;10.80;79.50
45137;DHT22;30894;51.740;19.498;2022-11-20T11:03:44;10.70;79.80
45137;DHT22;30894;51.740;19.498;2022-11-20T11:09:11;10.50;79.70
45137;DHT22;30894;51.740;19.498;2022-11-20T11:11:41;10.60;80.10
45137;DHT22;30894;51.740;19.498;2022-11-20T11:14:11;10.70;79.90
45137;DHT22;30894;51.740;19.498;2022-11-20T11:16:58;10.70;79.80
45137;DHT22;30894;51.740;19.498;2022-11-20T11:19:29;10.80;79.40
45137;DHT22;30894;51.740;19.498;2022-11-20T11:21:57;10.70;79.00
45137;DHT22;30894;51.740;19.498;2022-11-20T11:24:26;10.70;78.70
45137;DHT22;30894;51.740;19.498;2022-11-20T11:27:00;10.60;79.00
45137;DHT22;30894;51.740;19.498;2022-11-20T11:29:32;10.60;79.20
45137;DHT22;30894;51.740;19.498;2022-11-20T11:32:14;10.70;79.10
45137;DHT22;30894;51.740;19.498;2022-11-20T11:34:44;10.70;78.90
45137;DHT22;30894;51.740;19.498;2022-11-20T11:37:37;10.70;78.60
45137;DHT22;30894;51.740;19.498;2022-11-20T11:40:05;10.60;78.30
45137;DHT22;30894;51.740;19.498;2022-11-20T11:42:34;10.60;77.90
45137;DHT22;30894;51.740;19.498;2022-11-20T11:45:00;10.70;77.90
45137;DHT22;30894;51.740;19.498;2022-11-20T11:47:43;10.80;77.80
45137;DHT22;30894;51.740;19.498;2022-11-20T11:50:28;10.90;77.90
45137;DHT22;30894;51.740;19.498;2022-11-20T11:53:16;10.80;77.90
45137;DHT22;30894;51.740;19.498;2022-11-20T11:56:05;10.70;78.00
45137;DHT22;30894;51.740;19.498;2022-11-20T11:58:44;10.50;78.00
45137;DHT22;30894;51.740;19.498;2022-11-20T12:01:32;10.60;78.30
45137;DHT22;30894;51.740;19.498;2022-11-20T12:07:12;10.60;78.40
45137;DHT22;30894;51.740;19.498;2022-11-20T12:09:48;10.50;78.10
45137;DHT22;30894;51.740;19.498;2022-11-20T12:12:24;10.50;78.10
45137;DHT22;30894;51.740;19.498;2022-11-20T12:14:54;10.40;78.10
45137;DHT22;30894;51.740;19.498;2022-11-20T12:17:21;10.30;78.50
45137;DHT22;30894;51.740;19.498;2022-11-20T12:19:47;10.30;78.70
45137;DHT22;30894;51.740;19.498;2022-11-20T12:25:20;10.20;79.10
45137;DHT22;30894;51.740;19.498;2022-11-20T12:31:34;10.10;79.30
45137;DHT22;30894;51.740;19.498;2022-11-20T12:36:35;9.90;79.40
45137;DHT22;30894;51.740;19.498;2022-11-20T12:48:29;9.70;80.50
45137;DHT22;30894;51.740;19.498;2022-11-20T13:05:17;8.40;83.70
45137;DHT22;30894;51.740;19.498;2022-11-20T13:07:47;8.20;83.50
45137;DHT22;30894;51.740;19.498;2022-11-20T13:10:30;8.00;84.00
45137;DHT22;30894;51.740;19.498;2022-11-20T13:13:11;7.90;84.40
45137;DHT22;30894;51.740;19.498;2022-11-20T13:16:02;7.70;84.70
45137;DHT22;30894;51.740;19.498;2022-11-20T13:18:39;7.60;85.20
45137;DHT22;30894;51.740;19.498;2022-11-20T13:21:22;7.50;85.70
45137;DHT22;30894;51.740;19.498;2022-11-20T13:26:45;7.20;86.20
45137;DHT22;30894;51.740;19.498;2022-11-20T13:29:17;7.10;86.80
45137;DHT22;30894;51.740;19.498;2022-11-20T13:31:46;6.80;87.40
45137;DHT22;30894;51.740;19.498;2022-11-20T13:34:26;6.70;88.00
45137;DHT22;30894;51.740;19.498;2022-11-20T13:36:58;6.50;88.70
45137;DHT22;30894;51.740;19.498;2022-11-20T13:39:28;6.40;89.00
45137;DHT22;30894;51.740;19.498;2022-11-20T13:42:02;6.20;89.60
45137;DHT22;30894;51.740;19.498;2022-11-20T13:44:46;6.00;90.10
45137;DHT22;30894;51.740;19.498;2022-11-20T13:47:27;5.90;90.40
45137;DHT22;30894;51.740;19.498;2022-11-20T13:49:57;5.60;90.70
45137;DHT22;30894;51.740;19.498;2022-11-20T13:52:52;5.50;91.20
45137;DHT22;30894;51.740;19.498;2022-11-20T14:01:25;4.70;93.10
45137;DHT22;30894;51.740;19.498;2022-11-20T14:03:54;4.60;93.70
45137;DHT22;30894;51.740;19.498;2022-11-20T14:08:59;4.20;95.00
45137;DHT22;30894;51.740;19.498;2022-11-20T14:11:28;3.90;95.70
45137;DHT22;30894;51.740;19.498;2022-11-20T14:14:15;3.80;96.40
45137;DHT22;30894;51.740;19.498;2022-11-20T14:16:44;3.50;97.10
45137;DHT22;30894;51.740;19.498;2022-11-20T14:19:37;3.30;97.90
45137;DHT22;30894;51.740;19.498;2022-11-20T14:22:16;3.00;98.90
45137;DHT22;30894;51.740;19.498;2022-11-20T14:24:49;2.80;99.50
45137;DHT22;30894;51.740;19.498;2022-11-20T14:28:00;2.70;99.80
45137;DHT22;30894;51.740;19.498;2022-11-20T14:30:43;2.50;99.90
45137;DHT22;30894;51.740;19.498;2022-11-20T14:33:12;2.30;99.90
45137;DHT22;30894;51.740;19.498;2022-11-20T14:35:48;2.10;99.90
45137;DHT22;30894;51.740;19.498;2022-11-20T14:38:22;1.80;99.90
45137;DHT22;30894;51.740;19.498;2022-11-20T14:40:51;1.60;99.90
45137;DHT22;30894;51.740;19.498;2022-11-20T14:45:59;1.10;99.90
45137;DHT22;30894;51.740;19.498;2022-11-20T14:48:45;0.90;99.90
45137;DHT22;30894;51.740;19.498;2022-11-20T14:51:35;0.60;99.90
45137;DHT22;30894;51.740;19.498;2022-11-20T14:54:15;0.30;99.90
45137;DHT22;30894;51.740;19.498;2022-11-20T14:56:59;-0.10;99.90
45137;DHT22;30894;51.740;19.498;2022-11-20T14:59:30;-0.40;99.90
45137;DHT22;30894;51.740;19.498;2022-11-20T15:02:04;-0.60;99.90
45137;DHT22;30894;51.740;19.498;2022-11-20T15:04:31;-0.90;99.90
45137;DHT22;30894;51.740;19.498;2022-11-20T15:06:59;-1.10;99.90
45137;DHT22;30894;51.740;19.498;2022-11-20T15:09:26;-1.20;99.90
45137;DHT22;30894;51.740;19.498;2022-11-20T15:11:55;-1.40;99.90
45137;DHT22;30894;51.740;19.498;2022-11-20T15:14:25;-1.60;99.90
45137;DHT22;30894;51.740;19.498;2022-11-20T15:16:54;-1.70;99.90
45137;DHT22;30894;51.740;19.498;2022-11-20T15:19:24;-1.90;99.90
45137;DHT22;30894;51.740;19.498;2022-11-20T15:21:54;-2.00;99.90
45137;DHT22;30894;51.740;19.498;2022-11-20T15:24:20;-2.20;99.90
45137;DHT22;30894;51.740;19.498;2022-11-20T15:26:47;-2.40;99.90
45137;DHT22;30894;51.740;19.498;2022-11-20T15:29:15;-2.40;99.90
45137;DHT22;30894;51.740;19.498;2022-11-20T15:31:45;-2.50;99.90
45137;DHT22;30894;51.740;19.498;2022-11-20T15:34:12;-2.60;99.90
45137;DHT22;30894;51.740;19.498;2022-11-20T15:36:45;-2.70;99.90
45137;DHT22;30894;51.740;19.498;2022-11-20T15:39:13;-2.70;99.90
45137;DHT22;30894;51.740;19.498;2022-11-20T15:41:39;-2.80;99.90
45137;DHT22;30894;51.740;19.498;2022-11-20T15:44:07;-2.80;99.90
45137;DHT22;30894;51.740;19.498;2022-11-20T15:46:41;-2.90;99.90
45137;DHT22;30894;51.740;19.498;2022-11-20T15:49:14;-2.90;99.90
45137;DHT22;30894;51.740;19.498;2022-11-20T15:51:44;-3.00;99.90
45137;DHT22;30894;51.740;19.498;2022-11-20T15:54:18;-3.00;99.90
45137;DHT22;30894;51.740;19.498;2022-11-20T15:56:47;-3.10;99.90
45137;DHT22;30894;51.740;19.498;2022-11-20T15:59:15;-3.20;99.90
45137;DHT22;30894;51.740;19.498;2022-11-20T16:01:42;-3.30;99.90
45137;DHT22;30894;51.740;19.498;2022-11-20T16:04:13;-3.30;99.90
45137;DHT22;30894;51.740;19.498;2022-11-20T16:06:44;-3.30;99.90
45137;DHT22;30894;51.740;19.498;2022-11-20T16:09:10;-3.40;99.90
45137;DHT22;30894;51.740;19.498;2022-11-20T16:11:37;-3.40;99.90
45137;DHT22;30894;51.740;19.498;2022-11-20T16:14:06;-3.40;99.90
45137;DHT22;30894;51.740;19.498;2022-11-20T16:16:53;-3.50;99.90
45137;DHT22;30894;51.740;19.498;2022-11-20T16:19:20;-3.60;99.90
45137;DHT22;30894;51.740;19.498;2022-11-20T16:21:49;-3.70;99.90
45137;DHT22;30894;51.740;19.498;2022-11-20T16:24:16;-3.70;99.90
45137;DHT22;30894;51.740;19.498;2022-11-20T16:26:44;-3.80;99.90
45137;DHT22;30894;51.740;19.498;2022-11-20T16:29:10;-3.80;99.90
45137;DHT22;30894;51.740;19.498;2022-11-20T16:31:37;-3.90;99.90
45137;DHT22;30894;51.740;19.498;2022-11-20T16:34:07;-3.90;99.90
45137;DHT22;30894;51.740;19.498;2022-11-20T16:36:40;-3.90;99.90
45137;DHT22;30894;51.740;19.498;2022-11-20T16:39:07;-4.00;99.90
45137;DHT22;30894;51.740;19.498;2022-11-20T16:41:34;-4.10;99.90
45137;DHT22;30894;51.740;19.498;2022-11-20T16:44:09;-4.30;99.90
45137;DHT22;30894;51.740;19.498;2022-11-20T16:46:38;-4.40;99.90
45137;DHT22;30894;51.740;19.498;2022-11-20T16:49:11;-4.50;99.90
45137;DHT22;30894;51.740;19.498;2022-11-20T16:51:38;-4.50;99.90
45137;DHT22;30894;51.740;19.498;2022-11-20T16:54:09;-4.50;99.90
45137;DHT22;30894;51.740;19.498;2022-11-20T16:56:36;-4.60;99.90
45137;DHT22;30894;51.740;19.498;2022-11-20T16:59:05;-4.60;99.90
45137;DHT22;30894;51.740;19.498;2022-11-20T17:01:33;-4.60;99.90
45137;DHT22;30894;51.740;19.498;2022-11-20T17:04:05;-4.60;99.90
45137;DHT22;30894;51.740;19.498;2022-11-20T17:06:35;-4.60;99.90
45137;DHT22;30894;51.740;19.498;2022-11-20T17:09:06;-4.60;99.90
45137;DHT22;30894;51.740;19.498;2022-11-20T17:11:38;-4.50;99.90
45137;DHT22;30894;51.740;19.498;2022-11-20T17:14:10;-4.50;99.90
45137;DHT22;30894;51.740;19.498;2022-11-20T17:16:39;-4.50;99.90